Home   Weather   India   Hyderabad   Past weeks
Flag for India

Past Weather in Hyderabad, Telangana, India — Yesterday and Last 2 Weeks

Currently: 91 °F. Clear. (Weather station: Hyderabad Airport, India). See more current weather

Past Weather in Hyderabad — Graph

°F

Hyderabad Temperature Yesterday

Maximum temperature yesterday: 93 °F (at 11:30 am)
Minimum temperature yesterday: 64 °F (at 7:00 am)
Average temperature yesterday: 84 °F

High & Low Weather Summary for the Past Weeks

 TemperatureHumidityPressure
High97 °F (Mar 5, 2:00 pm)94% (Feb 24, 7:30 am)30.12 "Hg (Feb 24, 7:30 am)
Low59 °F (Feb 24, 7:30 am)16% (Mar 5, 1:00 pm)29.86 "Hg (Feb 26, 3:00 pm)
Average84 °F38%30.00 "Hg
* Reported Feb 22 1:30 pm — Mar 9 2:00 pm, Hyderabad. Weather by CustomWeather, © 2021

Note: Actual official high and low records may vary slightly from our data, if they occured in-between our weather recording intervals... More about our weather records

Hyderabad Weather History for the Previous 24 Hours

Scroll right to see more
 ConditionsComfort  
Time TempWeatherWind HumidityBarometerVisibility
2:00 pm
Tue, Mar 9
91 °FClear.3 mph23%29.98 "Hg4 mi
1:30 pm91 °FClear.5 mph24%30.01 "Hg4 mi
1:00 pm91 °FClear.6 mph30%30.01 "Hg4 mi
12:00 pm90 °FClear.2 mph29%30.07 "Hg4 mi
11:30 am90 °FClear.5 mph33%30.07 "Hg4 mi
11:00 am88 °FHaze.5 mph38%30.09 "Hg3 mi
10:30 am86 °FHaze.5 mph46%30.09 "Hg3 mi
10:00 am84 °FHaze.5 mph48%30.09 "Hg3 mi
9:30 am82 °FHaze.5 mph55%30.09 "Hg2 mi
9:00 am81 °FHaze.2 mph58%30.09 "Hg2 mi
8:30 am77 °FHaze.2 mph69%30.09 "Hg2 mi
8:00 am73 °FHaze.2 mph78%30.07 "Hg2 mi
7:30 am66 °FHaze.2 mph94%30.07 "Hg2 mi
12:00 am75 °FClear.3 mph74%30.04 "Hg4 mi
11:30 pm
Mon, Mar 8
75 °FClear.3 mph74%30.04 "Hg4 mi
11:00 pm77 °FClear.3 mph69%30.04 "Hg4 mi
10:30 pm77 °FClear.5 mph65%30.04 "Hg4 mi
10:00 pm77 °FClear.2 mph65%30.04 "Hg4 mi
9:30 pm79 °FClear.2 mph54%30.04 "Hg4 mi
9:00 pm79 °FClear.2 mph54%30.04 "Hg4 mi
8:30 pm81 °FClear.1 mph48%30.01 "Hg4 mi
8:00 pm81 °FClear.5 mph48%30.01 "Hg4 mi
7:30 pm82 °FClear.5 mph45%30.01 "Hg4 mi
7:00 pm82 °FClear.3 mph45%29.98 "Hg4 mi
6:30 pm84 °FClear.6 mph35%29.98 "Hg4 mi
6:00 pm86 °FClear.3 mph31%29.95 "Hg4 mi
5:30 pm88 °FClear.5 mph29%29.95 "Hg4 mi
5:00 pm90 °FClear.7 mph24%29.95 "Hg4 mi
4:30 pm90 °FClear.7 mph27%29.95 "Hg4 mi
4:00 pm91 °FClear.7 mph23%29.95 "Hg4 mi
3:30 pm91 °FClear.7 mph26%29.95 "Hg4 mi
3:00 pm91 °FClear.6 mph24%29.95 "Hg4 mi
Weather by CustomWeather, © 2021

See weather overview